createdAt,value
2023-12-03T00:00:31.498Z,94454.09
2023-12-03T00:02:58.805Z,94456.06
2023-12-03T00:05:34.787Z,94458.06
2023-12-03T00:08:06.324Z,94467.97
2023-12-03T00:10:33.913Z,94467.19
2023-12-03T00:13:01.631Z,94467.84
2023-12-03T00:15:29.048Z,94470.53
2023-12-03T00:18:02.688Z,94473.59
2023-12-03T00:20:29.963Z,94468.06
2023-12-03T00:23:02.498Z,94470.72
2023-12-03T00:25:30.402Z,94469.94
2023-12-03T00:28:03.736Z,94466.50
2023-12-03T00:30:37.247Z,94476.19
2023-12-03T00:33:06.877Z,94481.94
2023-12-03T00:35:36.005Z,94477.47
2023-12-03T00:38:04.112Z,94483.41
2023-12-03T00:40:31.287Z,94490.94
2023-12-03T00:43:00.674Z,94485.47
2023-12-03T00:45:28.092Z,94490.22
2023-12-03T00:47:56.391Z,94484.59
2023-12-03T00:50:24.361Z,94498.66
2023-12-03T00:52:52.262Z,94493.13
2023-12-03T00:55:21.715Z,94490.44
2023-12-03T00:57:52.155Z,94489.03
2023-12-03T01:00:19.406Z,94503.19
2023-12-03T01:02:53.271Z,94501.75
2023-12-03T01:05:30.740Z,94500.16
2023-12-03T01:08:02.595Z,94502.72
2023-12-03T01:10:30.420Z,94505.22
2023-12-03T01:13:01.801Z,94507.09
2023-12-03T01:15:29.894Z,94509.53
2023-12-03T01:17:59.733Z,94513.22
2023-12-03T01:20:28.290Z,94510.81
2023-12-03T01:22:55.843Z,94515.13
2023-12-03T01:25:23.968Z,94514.16
2023-12-03T01:30:51.584Z,94522.94
2023-12-03T01:33:18.256Z,94525.97
2023-12-03T01:35:44.870Z,94528.66
2023-12-03T01:38:11.471Z,94526.44
2023-12-03T01:40:38.067Z,94528.69
2023-12-03T01:43:05.829Z,94522.91
2023-12-03T01:45:32.834Z,94532.59
2023-12-03T01:47:59.571Z,94533.94
2023-12-03T01:50:27.637Z,94551.50
2023-12-03T01:52:55.195Z,94541.38
2023-12-03T01:55:22.237Z,94538.19
2023-12-03T01:57:48.962Z,94554.63
2023-12-03T02:00:15.982Z,94553.84
2023-12-03T02:02:42.618Z,94538.69
2023-12-03T02:05:10.111Z,94538.47
2023-12-03T02:07:36.866Z,94542.81
2023-12-03T02:10:05.465Z,94540.59
2023-12-03T02:12:32.149Z,94545.88
2023-12-03T02:14:58.748Z,94546.13
2023-12-03T02:17:25.411Z,94540.31
2023-12-03T02:19:51.980Z,94539.28
2023-12-03T02:22:18.641Z,94544.66
2023-12-03T02:24:45.313Z,94548.06
2023-12-03T02:27:11.958Z,94549.59
2023-12-03T02:29:38.660Z,94547.72
2023-12-03T02:32:05.373Z,94554.47
2023-12-03T02:34:32.135Z,94550.09
2023-12-03T02:36:58.726Z,94555.22
2023-12-03T02:39:25.368Z,94553.97
2023-12-03T02:41:51.951Z,94552.84
2023-12-03T02:44:18.514Z,94555.25
2023-12-03T02:46:45.065Z,94547.03
2023-12-03T02:49:11.765Z,94546.59
2023-12-03T02:51:38.432Z,94547.97
2023-12-03T02:54:07.353Z,94545.72
2023-12-03T02:56:33.999Z,94549.25
2023-12-03T02:59:00.709Z,94549.28
2023-12-03T03:01:27.438Z,94551.63
2023-12-03T03:03:54.091Z,94548.97
2023-12-03T03:06:20.927Z,94554.81
2023-12-03T03:08:47.520Z,94550.13
2023-12-03T03:11:15.319Z,94549.34
2023-12-03T03:13:41.942Z,94541.13
2023-12-03T03:16:08.877Z,94548.44
2023-12-03T03:18:36.207Z,94551.97
2023-12-03T03:21:03.675Z,94550.94
2023-12-03T03:23:30.257Z,94549.59
2023-12-03T03:25:56.840Z,94546.16
2023-12-03T03:28:23.677Z,94552.28
2023-12-03T03:30:50.388Z,94551.56
2023-12-03T03:33:17.078Z,94561.44
2023-12-03T03:35:43.775Z,94557.44
2023-12-03T03:38:10.353Z,94567.28
2023-12-03T03:40:37.901Z,94571.06
2023-12-03T03:43:04.558Z,94571.66
2023-12-03T03:45:31.539Z,94575.03
2023-12-03T03:47:58.445Z,94582.78
2023-12-03T03:50:25.115Z,94568.50
2023-12-03T03:52:51.847Z,94578.75
2023-12-03T03:55:18.597Z,94571.41
2023-12-03T03:57:45.444Z,94579.13
2023-12-03T04:00:12.700Z,94578.56
2023-12-03T04:02:39.410Z,94583.84
2023-12-03T04:05:06.702Z,94588.53
2023-12-03T04:07:33.502Z,94593.66
2023-12-03T04:10:00.315Z,94594.97
2023-12-03T04:12:26.908Z,94594.69
2023-12-03T04:14:53.515Z,94597.09
2023-12-03T04:17:20.118Z,94599.09
2023-12-03T04:19:47.136Z,94595.25
2023-12-03T04:22:15.177Z,94596.75
2023-12-03T04:24:41.872Z,94597.22
2023-12-03T04:27:08.853Z,94602.28
2023-12-03T04:29:35.815Z,94608.56
2023-12-03T04:32:02.376Z,94601.41
2023-12-03T04:34:29.142Z,94601.41
2023-12-03T04:36:55.846Z,94595.53
2023-12-03T04:39:22.484Z,94600.03
2023-12-03T04:41:49.217Z,94604.28
2023-12-03T04:44:16.054Z,94606.28
2023-12-03T04:46:43.214Z,94616.69
2023-12-03T04:49:09.883Z,94612.44
2023-12-03T04:51:36.659Z,94612.06
2023-12-03T04:54:03.306Z,94613.13
2023-12-03T04:56:30.133Z,94605.66
2023-12-03T04:58:58.674Z,94605.28
2023-12-03T05:01:25.394Z,94610.31
2023-12-03T05:03:52.085Z,94614.28
2023-12-03T05:06:19.233Z,94608.50
2023-12-03T05:08:45.927Z,94613.44
2023-12-03T05:11:12.520Z,94617.38
2023-12-03T05:13:39.134Z,94617.66
2023-12-03T05:16:06.101Z,94621.34
2023-12-03T05:18:33.556Z,94626.53
2023-12-03T05:21:00.596Z,94626.09
2023-12-03T05:23:27.261Z,94623.41
2023-12-03T05:25:54.251Z,94632.38
2023-12-03T05:28:21.656Z,94630.16
2023-12-03T05:30:48.319Z,94632.38
2023-12-03T05:33:15.189Z,94623.34
2023-12-03T05:35:42.506Z,94635.50
2023-12-03T05:38:09.206Z,94630.50
2023-12-03T05:40:35.895Z,94632.09
2023-12-03T05:43:03.138Z,94637.59
2023-12-03T05:45:29.835Z,94632.59
2023-12-03T05:47:56.589Z,94643.66
2023-12-03T05:50:23.332Z,94638.84
2023-12-03T05:52:49.973Z,94647.50
2023-12-03T05:55:17.348Z,94646.34
2023-12-03T05:57:44.591Z,94651.22
2023-12-03T06:00:12.435Z,94651.56
2023-12-03T06:02:39.209Z,94657.16
2023-12-03T06:05:06.512Z,94662.09
2023-12-03T06:07:33.332Z,94669.66
2023-12-03T06:10:00.001Z,94665.06
2023-12-03T06:12:31.583Z,94663.00
2023-12-03T06:14:58.226Z,94675.25
2023-12-03T06:17:24.889Z,94673.19
2023-12-03T06:19:51.534Z,94674.06
2023-12-03T06:22:18.117Z,94673.41
2023-12-03T06:24:44.822Z,94669.28
2023-12-03T06:27:11.499Z,94673.53
2023-12-03T06:29:38.109Z,94672.97
2023-12-03T06:32:04.824Z,94669.72
2023-12-03T06:34:31.471Z,94676.28
2023-12-03T06:37:00.381Z,94670.53
2023-12-03T06:39:27.401Z,94666.63
2023-12-03T06:41:54.462Z,94673.19
2023-12-03T06:44:31.080Z,94662.31
2023-12-03T06:47:10.540Z,94666.06
2023-12-03T06:49:37.328Z,94670.25
2023-12-03T06:52:04.229Z,94672.06
2023-12-03T06:54:33.339Z,94674.50
2023-12-03T06:56:59.981Z,94678.31
2023-12-03T06:59:28.752Z,94678.69
2023-12-03T07:02:02.675Z,94677.50
2023-12-03T07:04:29.695Z,94683.97
2023-12-03T07:06:56.833Z,94676.84
2023-12-03T07:09:37.565Z,94680.63
2023-12-03T07:12:13.694Z,94684.66
2023-12-03T07:14:40.432Z,94693.28
2023-12-03T07:17:07.754Z,94697.16
2023-12-03T07:19:37.323Z,94705.19
2023-12-03T07:22:04.245Z,94712.13
2023-12-03T07:24:32.985Z,94711.28
2023-12-03T07:26:59.624Z,94709.78
2023-12-03T07:29:26.880Z,94715.97
2023-12-03T07:31:55.854Z,94706.09
2023-12-03T07:34:23.516Z,94705.03
2023-12-03T07:36:50.223Z,94699.16
2023-12-03T07:39:18.979Z,94706.41
2023-12-03T07:41:52.305Z,94705.03
2023-12-03T07:44:19.262Z,94708.50
2023-12-03T07:46:46.227Z,94707.41
2023-12-03T07:49:13.226Z,94708.19
2023-12-03T07:51:41.428Z,94705.84
2023-12-03T07:54:11.394Z,94702.91
2023-12-03T07:56:39.796Z,94705.72
2023-12-03T07:59:10.023Z,94705.16
2023-12-03T08:01:41.161Z,94712.59
2023-12-03T08:04:08.538Z,94706.75
2023-12-03T08:06:35.924Z,94716.81
2023-12-03T08:09:02.637Z,94721.78
2023-12-03T08:11:29.329Z,94722.75
2023-12-03T08:13:56.732Z,94711.09
2023-12-03T08:16:23.591Z,94718.19
2023-12-03T08:18:51.064Z,94713.63
2023-12-03T08:21:18.572Z,94710.88
2023-12-03T08:23:45.312Z,94705.38
2023-12-03T08:26:12.020Z,94707.91
2023-12-03T08:28:39.057Z,94704.84
2023-12-03T08:31:06.441Z,94703.25
2023-12-03T08:33:33.171Z,94703.91
2023-12-03T08:35:59.830Z,94710.84
2023-12-03T08:38:26.461Z,94712.44
2023-12-03T08:40:53.431Z,94717.16
2023-12-03T08:43:20.088Z,94729.09
2023-12-03T08:45:46.740Z,94727.66
2023-12-03T08:48:13.385Z,94724.13
2023-12-03T08:50:40.051Z,94717.66
2023-12-03T08:53:06.679Z,94713.81
2023-12-03T08:55:33.355Z,94712.19
2023-12-03T08:58:02.315Z,94710.19
2023-12-03T09:00:29.165Z,94717.53
2023-12-03T09:02:55.869Z,94707.19
2023-12-03T09:05:22.459Z,94713.44
2023-12-03T09:07:49.382Z,94718.91
2023-12-03T09:10:16.051Z,94722.47
2023-12-03T09:12:43.516Z,94711.25
2023-12-03T09:15:10.814Z,94715.19
2023-12-03T09:17:37.825Z,94719.69
2023-12-03T09:20:05.306Z,94721.34
2023-12-03T09:22:31.956Z,94717.88
2023-12-03T09:25:00.637Z,94721.19
2023-12-03T09:27:27.620Z,94719.50
2023-12-03T09:29:54.864Z,94724.75
2023-12-03T09:32:27.792Z,94724.16
2023-12-03T09:34:55.056Z,94721.50
2023-12-03T09:37:21.882Z,94730.69
2023-12-03T09:39:48.660Z,94731.97
2023-12-03T09:42:24.006Z,94727.66
2023-12-03T09:45:05.648Z,94729.81
2023-12-03T09:47:43.707Z,94720.63
2023-12-03T09:50:14.400Z,94719.47
2023-12-03T09:52:44.259Z,94722.34
2023-12-03T09:55:11.118Z,94725.09
2023-12-03T09:57:42.725Z,94721.00
2023-12-03T10:00:11.105Z,94720.00
2023-12-03T10:02:37.944Z,94715.34
2023-12-03T10:05:05.961Z,94713.59
2023-12-03T10:07:35.334Z,94713.41
2023-12-03T10:10:05.506Z,94713.53
2023-12-03T10:12:43.587Z,94706.00
2023-12-03T10:15:11.724Z,94702.16
2023-12-03T10:17:39.488Z,94702.97
2023-12-03T10:20:28.022Z,94707.78
2023-12-03T10:23:03.323Z,94705.09
2023-12-03T10:25:32.702Z,94700.41
2023-12-03T10:28:01.770Z,94711.03
2023-12-03T10:30:29.569Z,94701.44
2023-12-03T10:33:00.442Z,94708.22
2023-12-03T10:35:34.670Z,94699.88
2023-12-03T10:38:05.436Z,94699.06
2023-12-03T10:40:34.911Z,94689.50
2023-12-03T10:43:04.938Z,94695.34
2023-12-03T10:45:37.167Z,94686.53
2023-12-03T10:48:06.094Z,94684.78
2023-12-03T10:50:34.428Z,94690.31
2023-12-03T10:53:03.516Z,94679.25
2023-12-03T10:55:34.167Z,94679.72
2023-12-03T10:58:08.812Z,94681.16
2023-12-03T11:00:42.256Z,94680.03
2023-12-03T11:03:44.570Z,94677.31
2023-12-03T11:06:15.574Z,94666.88
2023-12-03T11:08:42.470Z,94668.47
2023-12-03T11:11:09.623Z,94670.69
2023-12-03T11:13:44.054Z,94660.09
2023-12-03T11:16:15.478Z,94657.72
2023-12-03T11:18:53.558Z,94670.78
2023-12-03T11:21:40.890Z,94664.03
2023-12-03T11:24:33.203Z,94660.09
2023-12-03T11:27:00.249Z,94648.34
2023-12-03T11:29:55.840Z,94649.25
2023-12-03T11:32:30.665Z,94639.09
2023-12-03T11:35:06.499Z,94637.13
2023-12-03T11:37:33.266Z,94638.53
2023-12-03T11:40:11.126Z,94626.25
2023-12-03T11:42:48.122Z,94634.72
2023-12-03T11:45:28.425Z,94629.59
2023-12-03T11:48:07.560Z,94628.72
2023-12-03T11:50:37.884Z,94630.47
2023-12-03T11:53:06.475Z,94633.25
2023-12-03T11:55:35.565Z,94628.22
2023-12-03T11:58:04.211Z,94624.81
2023-12-03T12:00:32.282Z,94627.31
2023-12-03T12:03:00.857Z,94614.09
2023-12-03T12:05:28.091Z,94615.00
2023-12-03T12:08:02.465Z,94618.44
2023-12-03T12:10:33.143Z,94609.94
2023-12-03T12:13:01.670Z,94616.72
2023-12-03T12:15:28.623Z,94614.25
2023-12-03T12:17:56.715Z,94610.72
2023-12-03T12:20:28.277Z,94599.78
2023-12-03T12:22:56.765Z,94606.38
2023-12-03T12:25:26.745Z,94605.41
2023-12-03T12:27:54.402Z,94613.13
2023-12-03T12:30:40.440Z,94605.88
2023-12-03T12:33:07.735Z,94606.00
2023-12-03T12:35:34.834Z,94605.69
2023-12-03T12:38:05.944Z,94607.06
2023-12-03T12:40:33.919Z,94600.50
2023-12-03T12:43:04.317Z,94604.16
2023-12-03T12:45:31.996Z,94597.97
2023-12-03T12:47:59.000Z,94596.94
2023-12-03T12:50:38.606Z,94593.94
2023-12-03T12:53:07.500Z,94595.41
2023-12-03T12:55:35.842Z,94592.97
2023-12-03T12:58:06.259Z,94591.97
2023-12-03T13:00:33.758Z,94594.97
2023-12-03T13:03:00.470Z,94602.09
2023-12-03T13:05:27.241Z,94604.00
2023-12-03T13:07:54.414Z,94600.31
2023-12-03T13:10:22.327Z,94592.69
2023-12-03T13:12:49.315Z,94593.09
2023-12-03T13:15:18.252Z,94593.09
2023-12-03T13:18:08.362Z,94591.75
2023-12-03T13:20:42.610Z,94591.56
2023-12-03T13:23:10.237Z,94588.91
2023-12-03T13:25:37.467Z,94596.50
2023-12-03T13:28:04.352Z,94599.81
2023-12-03T13:30:30.944Z,94592.66
2023-12-03T13:32:59.641Z,94591.28
2023-12-03T13:35:26.431Z,94589.53
2023-12-03T13:37:53.918Z,94585.03
2023-12-03T13:40:20.627Z,94587.66
2023-12-03T13:42:54.397Z,94593.84
2023-12-03T13:45:22.472Z,94587.28
2023-12-03T13:47:49.442Z,94588.13
2023-12-03T13:50:16.102Z,94590.16
2023-12-03T13:52:42.774Z,94592.09
2023-12-03T13:55:10.160Z,94585.66
2023-12-03T13:57:38.841Z,94592.34
2023-12-03T14:00:06.585Z,94582.88
2023-12-03T14:02:41.601Z,94582.91
2023-12-03T14:05:20.528Z,94582.56
2023-12-03T14:07:53.962Z,94578.78
2023-12-03T14:10:21.564Z,94577.31
2023-12-03T14:12:48.203Z,94584.94
2023-12-03T14:15:14.893Z,94588.56
2023-12-03T14:17:44.929Z,94587.91
2023-12-03T14:20:11.639Z,94588.16
2023-12-03T14:22:38.272Z,94595.56
2023-12-03T14:25:05.683Z,94585.53
2023-12-03T14:27:32.464Z,94590.44
2023-12-03T14:29:59.173Z,94584.97
2023-12-03T14:32:25.783Z,94581.00
2023-12-03T14:34:52.441Z,94579.34
2023-12-03T14:37:19.076Z,94575.75
2023-12-03T14:39:45.737Z,94581.63
2023-12-03T14:42:12.413Z,94571.69
2023-12-03T14:44:40.909Z,94578.44
2023-12-03T14:47:07.475Z,94585.09
2023-12-03T14:49:34.139Z,94588.78
2023-12-03T14:52:00.946Z,94586.47
2023-12-03T14:54:27.603Z,94591.31
2023-12-03T14:56:54.339Z,94588.06
2023-12-03T14:59:21.064Z,94596.59
2023-12-03T15:01:47.886Z,94600.00
2023-12-03T15:04:14.701Z,94593.16
2023-12-03T15:06:41.422Z,94597.50
2023-12-03T15:09:08.148Z,94601.63
2023-12-03T15:11:34.770Z,94604.47
2023-12-03T15:14:01.360Z,94608.66
2023-12-03T15:16:29.776Z,94615.88
2023-12-03T15:18:56.570Z,94617.63
2023-12-03T15:21:23.318Z,94611.88
2023-12-03T15:23:49.964Z,94613.00
2023-12-03T15:26:16.723Z,94612.41
2023-12-03T15:28:44.120Z,94601.22
2023-12-03T15:31:12.094Z,94607.34
2023-12-03T15:33:39.323Z,94605.88
2023-12-03T15:36:07.362Z,94601.41
2023-12-03T15:38:34.183Z,94608.25
2023-12-03T15:41:01.745Z,94609.53
2023-12-03T15:43:34.294Z,94612.00
2023-12-03T15:46:08.519Z,94609.63
2023-12-03T15:48:35.875Z,94609.03
2023-12-03T15:51:03.757Z,94604.44
2023-12-03T15:53:30.419Z,94607.59
2023-12-03T15:55:57.417Z,94602.22
2023-12-03T15:58:25.668Z,94605.47
2023-12-03T16:00:52.778Z,94608.25
2023-12-03T16:03:20.970Z,94604.00
2023-12-03T16:05:47.917Z,94600.66
2023-12-03T16:08:14.608Z,94600.31
2023-12-03T16:10:41.219Z,94597.59
2023-12-03T16:13:07.858Z,94594.81
2023-12-03T16:15:34.526Z,94595.44
2023-12-03T16:18:01.188Z,94590.03
2023-12-03T16:20:28.650Z,94589.06
2023-12-03T16:22:55.420Z,94581.41
2023-12-03T16:25:22.396Z,94582.47
2023-12-03T16:27:49.150Z,94588.97
2023-12-03T16:30:17.574Z,94583.94
2023-12-03T16:32:44.954Z,94589.09
2023-12-03T16:35:12.656Z,94586.75
2023-12-03T16:37:39.682Z,94577.50
2023-12-03T16:40:07.537Z,94580.34
2023-12-03T16:42:34.242Z,94569.34
2023-12-03T16:45:00.950Z,94577.75
2023-12-03T16:47:27.666Z,94578.97
2023-12-03T16:49:54.397Z,94566.91
2023-12-03T16:52:20.989Z,94566.59
2023-12-03T16:54:48.011Z,94567.72
2023-12-03T16:57:16.171Z,94566.91
2023-12-03T16:59:43.173Z,94570.75
2023-12-03T17:02:10.431Z,94568.28
2023-12-03T17:04:38.151Z,94570.00
2023-12-03T17:07:05.631Z,94573.28
2023-12-03T17:09:32.723Z,94578.94
2023-12-03T17:12:01.960Z,94573.91
2023-12-03T17:14:28.953Z,94586.56
2023-12-03T17:16:56.066Z,94582.38
2023-12-03T17:19:23.036Z,94583.50
2023-12-03T17:21:49.805Z,94590.34
2023-12-03T17:24:16.496Z,94583.75
2023-12-03T17:26:43.063Z,94584.19
2023-12-03T17:29:10.226Z,94586.22
2023-12-03T17:31:36.971Z,94584.25
2023-12-03T17:34:04.237Z,94578.00
2023-12-03T17:36:32.547Z,94569.97
2023-12-03T17:39:03.246Z,94564.41
2023-12-03T17:41:31.061Z,94561.06
2023-12-03T17:43:57.684Z,94571.81
2023-12-03T17:46:24.601Z,94569.06
2023-12-03T17:48:51.782Z,94567.47
2023-12-03T17:51:21.126Z,94562.59
2023-12-03T17:53:47.691Z,94567.47
2023-12-03T17:56:14.914Z,94565.16
2023-12-03T17:58:41.709Z,94562.72
2023-12-03T18:01:08.712Z,94559.13
2023-12-03T18:03:35.560Z,94577.56
2023-12-03T18:06:05.095Z,94568.13
2023-12-03T18:08:31.834Z,94572.88
2023-12-03T18:10:59.412Z,94572.16
2023-12-03T18:13:26.584Z,94572.66
2023-12-03T18:15:53.339Z,94558.22
2023-12-03T18:18:20.163Z,94564.53
2023-12-03T18:20:46.917Z,94569.28
2023-12-03T18:23:13.798Z,94565.22
2023-12-03T18:25:40.427Z,94566.03
2023-12-03T18:28:10.043Z,94565.63
2023-12-03T18:30:39.483Z,94567.22
2023-12-03T18:33:08.766Z,94557.56
2023-12-03T18:35:35.852Z,94556.78
2023-12-03T18:38:02.972Z,94556.88
2023-12-03T18:40:29.691Z,94547.88
2023-12-03T18:42:56.699Z,94550.63
2023-12-03T18:45:24.357Z,94552.22
2023-12-03T18:47:51.524Z,94544.72
2023-12-03T18:50:18.328Z,94544.78
2023-12-03T18:52:44.961Z,94545.22
2023-12-03T18:55:14.874Z,94543.63
2023-12-03T18:57:42.127Z,94551.78
2023-12-03T19:00:10.348Z,94549.44
2023-12-03T19:02:42.784Z,94531.72
2023-12-03T19:05:11.574Z,94531.22
2023-12-03T19:07:38.789Z,94526.22
2023-12-03T19:10:07.426Z,94511.81
2023-12-03T19:12:34.230Z,94509.91
2023-12-03T19:15:00.847Z,94509.69
2023-12-03T19:17:27.594Z,94502.19
2023-12-03T19:19:54.227Z,94506.56
2023-12-03T19:22:21.036Z,94502.00
2023-12-03T19:24:47.930Z,94494.34
2023-12-03T19:27:14.536Z,94494.09
2023-12-03T19:29:41.838Z,94485.75
2023-12-03T19:32:09.013Z,94481.19
2023-12-03T19:34:35.916Z,94472.72
2023-12-03T19:37:02.666Z,94471.59
2023-12-03T19:39:30.446Z,94476.66
2023-12-03T19:41:58.085Z,94471.56
2023-12-03T19:44:24.882Z,94473.28
2023-12-03T19:46:52.634Z,94467.47
2023-12-03T19:49:19.402Z,94472.94
2023-12-03T19:51:46.414Z,94462.16
2023-12-03T19:54:13.052Z,94457.38
2023-12-03T19:56:40.125Z,94453.84
2023-12-03T19:59:06.745Z,94462.16
2023-12-03T20:01:33.426Z,94460.59
2023-12-03T20:04:00.195Z,94452.38
2023-12-03T20:06:26.841Z,94447.84
2023-12-03T20:08:54.262Z,94440.88
2023-12-03T20:11:21.221Z,94437.66
2023-12-03T20:13:47.830Z,94428.59
2023-12-03T20:16:14.549Z,94422.38
2023-12-03T20:18:41.962Z,94422.91
2023-12-03T20:21:09.039Z,94425.03
2023-12-03T20:23:36.301Z,94421.91
2023-12-03T20:26:07.794Z,94423.66
2023-12-03T20:28:38.537Z,94427.63
2023-12-03T20:31:06.391Z,94421.13
2023-12-03T20:33:33.348Z,94409.69
2023-12-03T20:36:00.422Z,94410.19
2023-12-03T20:38:27.464Z,94404.03
2023-12-03T20:40:54.108Z,94406.25
2023-12-03T20:43:20.909Z,94412.09
2023-12-03T20:45:48.021Z,94406.22
2023-12-03T20:48:17.333Z,94403.13
2023-12-03T20:50:44.034Z,94398.25
2023-12-03T20:53:11.720Z,94399.22
2023-12-03T20:55:38.556Z,94398.25
2023-12-03T20:58:05.325Z,94396.13
2023-12-03T21:00:32.597Z,94393.75
2023-12-03T21:02:59.290Z,94395.34
2023-12-03T21:05:25.960Z,94384.47
2023-12-03T21:07:52.628Z,94389.06
2023-12-03T21:10:19.557Z,94383.44
2023-12-03T21:12:47.502Z,94372.47
2023-12-03T21:15:14.316Z,94373.47
2023-12-03T21:17:41.440Z,94372.88
2023-12-03T21:20:09.368Z,94368.00
2023-12-03T21:22:36.097Z,94353.94
2023-12-03T21:25:04.939Z,94348.63
2023-12-03T21:27:32.344Z,94348.75
2023-12-03T21:30:00.088Z,94352.75
2023-12-03T21:32:29.058Z,94359.25
2023-12-03T21:34:56.449Z,94352.28
2023-12-03T21:37:23.364Z,94352.19
2023-12-03T21:39:50.815Z,94355.63
2023-12-03T21:42:17.491Z,94346.50
2023-12-03T21:44:44.267Z,94348.59
2023-12-03T21:47:10.875Z,94345.13
2023-12-03T21:49:37.717Z,94353.94
2023-12-03T21:52:04.603Z,94344.28
2023-12-03T21:54:31.456Z,94344.50
2023-12-03T21:56:58.071Z,94334.63
2023-12-03T21:59:24.806Z,94331.44
2023-12-03T22:01:51.739Z,94328.63
2023-12-03T22:04:18.477Z,94332.47
2023-12-03T22:06:45.195Z,94324.22
2023-12-03T22:09:11.797Z,94318.28
2023-12-03T22:11:38.380Z,94322.75
2023-12-03T22:14:04.943Z,94318.78
2023-12-03T22:16:31.512Z,94325.69
2023-12-03T22:18:58.825Z,94322.78
2023-12-03T22:21:25.437Z,94322.34
2023-12-03T22:23:52.042Z,94311.47
2023-12-03T22:26:20.688Z,94303.00
2023-12-03T22:28:47.516Z,94296.63
2023-12-03T22:31:14.098Z,94304.56
2023-12-03T22:33:40.811Z,94293.91
2023-12-03T22:36:07.641Z,94297.03
2023-12-03T22:38:34.231Z,94289.41
2023-12-03T22:41:00.903Z,94284.38
2023-12-03T22:43:27.492Z,94284.88
2023-12-03T22:45:54.222Z,94282.72
2023-12-03T22:48:20.795Z,94283.34
2023-12-03T22:50:47.426Z,94276.94
2023-12-03T22:53:14.026Z,94262.34
2023-12-03T22:55:41.513Z,94267.44
2023-12-03T22:58:08.963Z,94262.00
2023-12-03T23:00:35.630Z,94270.50
2023-12-03T23:03:02.263Z,94275.34
2023-12-03T23:05:35.195Z,94261.31
2023-12-03T23:08:05.821Z,94269.53
2023-12-03T23:10:34.091Z,94257.09
2023-12-03T23:13:01.494Z,94247.47
2023-12-03T23:15:28.211Z,94246.03
2023-12-03T23:17:54.907Z,94241.53
2023-12-03T23:20:21.576Z,94246.94
2023-12-03T23:22:48.173Z,94242.00
2023-12-03T23:25:15.036Z,94233.56
2023-12-03T23:27:42.206Z,94231.38
2023-12-03T23:30:09.231Z,94223.47
2023-12-03T23:32:36.003Z,94223.75
2023-12-03T23:35:04.536Z,94212.28
2023-12-03T23:37:31.157Z,94208.03
2023-12-03T23:39:57.897Z,94200.56
2023-12-03T23:42:24.494Z,94197.44
2023-12-03T23:44:51.753Z,94194.00
2023-12-03T23:47:18.707Z,94200.50
2023-12-03T23:49:45.583Z,94189.97
2023-12-03T23:52:12.236Z,94189.91
2023-12-03T23:54:40.946Z,94182.97
2023-12-03T23:57:07.958Z,94183.31
2023-12-03T23:59:34.538Z,94179.06
